sensor_id;sensor_type;location;lat;lon;timestamp;P1;durP1;ratioP1;P2;durP2;ratioP2
48363;SDS011;34170;54.364;18.582;2023-06-26T00:00:40;9.27;;;5.65;;
48363;SDS011;34170;54.364;18.582;2023-06-26T00:03:27;10.38;;;5.95;;
48363;SDS011;34170;54.364;18.582;2023-06-26T00:05:56;8.05;;;6.40;;
48363;SDS011;34170;54.364;18.582;2023-06-26T00:08:28;10.90;;;6.60;;
48363;SDS011;34170;54.364;18.582;2023-06-26T00:10:56;8.18;;;6.38;;
48363;SDS011;34170;54.364;18.582;2023-06-26T00:13:24;9.90;;;6.13;;
48363;SDS011;34170;54.364;18.582;2023-06-26T00:15:52;11.35;;;6.50;;
48363;SDS011;34170;54.364;18.582;2023-06-26T00:18:20;11.48;;;7.40;;
48363;SDS011;34170;54.364;18.582;2023-06-26T00:20:47;11.57;;;7.10;;
48363;SDS011;34170;54.364;18.582;2023-06-26T00:23:16;15.75;;;7.70;;
48363;SDS011;34170;54.364;18.582;2023-06-26T00:25:44;9.10;;;6.47;;
48363;SDS011;34170;54.364;18.582;2023-06-26T00:28:12;10.85;;;6.57;;
48363;SDS011;34170;54.364;18.582;2023-06-26T00:30:40;10.10;;;7.15;;
48363;SDS011;34170;54.364;18.582;2023-06-26T00:33:08;10.65;;;6.63;;
48363;SDS011;34170;54.364;18.582;2023-06-26T00:35:35;11.32;;;5.97;;
48363;SDS011;34170;54.364;18.582;2023-06-26T00:38:04;10.90;;;6.97;;
48363;SDS011;34170;54.364;18.582;2023-06-26T00:40:31;12.48;;;7.30;;
48363;SDS011;34170;54.364;18.582;2023-06-26T00:42:59;11.70;;;6.75;;
48363;SDS011;34170;54.364;18.582;2023-06-26T00:45:27;12.75;;;7.18;;
48363;SDS011;34170;54.364;18.582;2023-06-26T00:48:08;10.25;;;7.05;;
48363;SDS011;34170;54.364;18.582;2023-06-26T00:50:40;12.48;;;7.63;;
48363;SDS011;34170;54.364;18.582;2023-06-26T00:53:09;11.88;;;7.30;;
48363;SDS011;34170;54.364;18.582;2023-06-26T00:55:38;11.90;;;7.47;;
48363;SDS011;34170;54.364;18.582;2023-06-26T00:58:06;10.88;;;7.38;;
48363;SDS011;34170;54.364;18.582;2023-06-26T01:00:34;11.43;;;7.03;;
48363;SDS011;34170;54.364;18.582;2023-06-26T01:03:02;12.13;;;7.18;;
48363;SDS011;34170;54.364;18.582;2023-06-26T01:05:30;12.52;;;7.45;;
48363;SDS011;34170;54.364;18.582;2023-06-26T01:07:58;13.73;;;8.07;;
48363;SDS011;34170;54.364;18.582;2023-06-26T01:10:26;15.35;;;7.10;;
48363;SDS011;34170;54.364;18.582;2023-06-26T01:12:57;14.65;;;8.32;;
48363;SDS011;34170;54.364;18.582;2023-06-26T01:15:25;11.95;;;7.63;;
48363;SDS011;34170;54.364;18.582;2023-06-26T01:17:53;12.98;;;7.63;;
48363;SDS011;34170;54.364;18.582;2023-06-26T01:20:21;15.18;;;8.05;;
48363;SDS011;34170;54.364;18.582;2023-06-26T01:22:58;13.13;;;7.93;;
48363;SDS011;34170;54.364;18.582;2023-06-26T01:28:35;14.27;;;8.20;;
48363;SDS011;34170;54.364;18.582;2023-06-26T01:31:08;12.90;;;7.68;;
48363;SDS011;34170;54.364;18.582;2023-06-26T01:33:41;14.57;;;8.38;;
48363;SDS011;34170;54.364;18.582;2023-06-26T01:36:10;14.38;;;8.57;;
48363;SDS011;34170;54.364;18.582;2023-06-26T01:38:38;13.68;;;7.85;;
48363;SDS011;34170;54.364;18.582;2023-06-26T01:41:06;12.43;;;8.45;;
48363;SDS011;34170;54.364;18.582;2023-06-26T01:43:43;14.95;;;8.38;;
48363;SDS011;34170;54.364;18.582;2023-06-26T01:46:43;10.88;;;7.13;;
48363;SDS011;34170;54.364;18.582;2023-06-26T01:49:44;13.40;;;8.15;;
48363;SDS011;34170;54.364;18.582;2023-06-26T01:55:31;15.45;;;9.40;;
48363;SDS011;34170;54.364;18.582;2023-06-26T01:58:03;13.85;;;8.73;;
48363;SDS011;34170;54.364;18.582;2023-06-26T02:00:31;14.40;;;8.80;;
48363;SDS011;34170;54.364;18.582;2023-06-26T02:02:59;11.82;;;8.20;;
48363;SDS011;34170;54.364;18.582;2023-06-26T02:05:28;12.45;;;8.27;;
48363;SDS011;34170;54.364;18.582;2023-06-26T02:07:59;11.13;;;7.80;;
48363;SDS011;34170;54.364;18.582;2023-06-26T02:10:30;13.35;;;8.63;;
48363;SDS011;34170;54.364;18.582;2023-06-26T02:12:58;14.82;;;9.05;;
48363;SDS011;34170;54.364;18.582;2023-06-26T02:15:26;12.25;;;8.23;;
48363;SDS011;34170;54.364;18.582;2023-06-26T02:17:53;12.85;;;8.43;;
48363;SDS011;34170;54.364;18.582;2023-06-26T02:20:21;15.82;;;7.95;;
48363;SDS011;34170;54.364;18.582;2023-06-26T02:22:49;10.85;;;7.38;;
48363;SDS011;34170;54.364;18.582;2023-06-26T02:25:17;12.18;;;8.07;;
48363;SDS011;34170;54.364;18.582;2023-06-26T02:27:45;14.00;;;8.13;;
48363;SDS011;34170;54.364;18.582;2023-06-26T02:30:13;12.95;;;8.10;;
48363;SDS011;34170;54.364;18.582;2023-06-26T02:32:42;11.60;;;8.30;;
48363;SDS011;34170;54.364;18.582;2023-06-26T02:35:10;12.52;;;8.00;;
48363;SDS011;34170;54.364;18.582;2023-06-26T02:37:41;8.45;;;5.97;;
48363;SDS011;34170;54.364;18.582;2023-06-26T02:40:09;10.48;;;7.28;;
48363;SDS011;34170;54.364;18.582;2023-06-26T02:42:39;10.73;;;6.72;;
48363;SDS011;34170;54.364;18.582;2023-06-26T02:45:07;11.15;;;7.55;;
48363;SDS011;34170;54.364;18.582;2023-06-26T02:47:36;9.77;;;7.13;;
48363;SDS011;34170;54.364;18.582;2023-06-26T02:50:09;10.73;;;7.32;;
48363;SDS011;34170;54.364;18.582;2023-06-26T02:53:00;11.60;;;7.28;;
48363;SDS011;34170;54.364;18.582;2023-06-26T02:55:28;10.55;;;7.07;;
48363;SDS011;34170;54.364;18.582;2023-06-26T02:57:56;10.15;;;6.50;;
48363;SDS011;34170;54.364;18.582;2023-06-26T03:00:24;11.45;;;7.45;;
48363;SDS011;34170;54.364;18.582;2023-06-26T03:02:53;12.73;;;7.07;;
48363;SDS011;34170;54.364;18.582;2023-06-26T03:05:23;10.57;;;7.05;;
48363;SDS011;34170;54.364;18.582;2023-06-26T03:07:51;9.27;;;6.50;;
48363;SDS011;34170;54.364;18.582;2023-06-26T03:10:20;12.43;;;6.70;;
48363;SDS011;34170;54.364;18.582;2023-06-26T03:12:48;10.38;;;6.40;;
48363;SDS011;34170;54.364;18.582;2023-06-26T03:15:17;9.48;;;6.50;;
48363;SDS011;34170;54.364;18.582;2023-06-26T03:17:46;8.20;;;6.32;;
48363;SDS011;34170;54.364;18.582;2023-06-26T03:20:21;10.13;;;6.30;;
48363;SDS011;34170;54.364;18.582;2023-06-26T03:22:53;9.52;;;6.22;;
48363;SDS011;34170;54.364;18.582;2023-06-26T03:25:22;11.23;;;6.25;;
48363;SDS011;34170;54.364;18.582;2023-06-26T03:27:58;9.63;;;6.30;;
48363;SDS011;34170;54.364;18.582;2023-06-26T03:30:26;8.00;;;5.00;;
48363;SDS011;34170;54.364;18.582;2023-06-26T03:32:56;7.53;;;5.55;;
48363;SDS011;34170;54.364;18.582;2023-06-26T03:35:24;8.00;;;5.60;;
48363;SDS011;34170;54.364;18.582;2023-06-26T03:37:52;8.50;;;5.15;;
48363;SDS011;34170;54.364;18.582;2023-06-26T03:40:20;7.70;;;5.18;;
48363;SDS011;34170;54.364;18.582;2023-06-26T03:42:50;7.65;;;4.60;;
48363;SDS011;34170;54.364;18.582;2023-06-26T03:45:18;8.60;;;4.82;;
48363;SDS011;34170;54.364;18.582;2023-06-26T03:47:48;7.70;;;4.95;;
48363;SDS011;34170;54.364;18.582;2023-06-26T03:50:16;9.30;;;4.72;;
48363;SDS011;34170;54.364;18.582;2023-06-26T03:52:44;8.73;;;5.18;;
48363;SDS011;34170;54.364;18.582;2023-06-26T03:55:13;7.28;;;4.40;;
48363;SDS011;34170;54.364;18.582;2023-06-26T03:57:44;8.68;;;5.00;;
48363;SDS011;34170;54.364;18.582;2023-06-26T04:00:13;8.38;;;4.97;;
48363;SDS011;34170;54.364;18.582;2023-06-26T04:02:41;6.60;;;5.20;;
48363;SDS011;34170;54.364;18.582;2023-06-26T04:05:11;5.72;;;4.25;;
48363;SDS011;34170;54.364;18.582;2023-06-26T04:07:38;5.72;;;4.20;;
48363;SDS011;34170;54.364;18.582;2023-06-26T04:10:06;8.23;;;4.57;;
48363;SDS011;34170;54.364;18.582;2023-06-26T04:12:34;4.97;;;4.32;;
48363;SDS011;34170;54.364;18.582;2023-06-26T04:15:02;5.72;;;4.47;;
48363;SDS011;34170;54.364;18.582;2023-06-26T04:17:30;7.18;;;4.93;;
48363;SDS011;34170;54.364;18.582;2023-06-26T04:19:58;5.65;;;3.83;;
48363;SDS011;34170;54.364;18.582;2023-06-26T04:22:26;5.13;;;3.92;;
48363;SDS011;34170;54.364;18.582;2023-06-26T04:24:53;6.30;;;3.88;;
48363;SDS011;34170;54.364;18.582;2023-06-26T04:27:22;4.40;;;3.80;;
48363;SDS011;34170;54.364;18.582;2023-06-26T04:29:50;4.85;;;3.70;;
48363;SDS011;34170;54.364;18.582;2023-06-26T04:32:17;4.75;;;3.78;;
48363;SDS011;34170;54.364;18.582;2023-06-26T04:34:45;5.22;;;3.92;;
48363;SDS011;34170;54.364;18.582;2023-06-26T04:37:15;5.78;;;3.75;;
48363;SDS011;34170;54.364;18.582;2023-06-26T04:39:45;4.82;;;3.72;;
48363;SDS011;34170;54.364;18.582;2023-06-26T04:42:13;5.38;;;3.60;;
48363;SDS011;34170;54.364;18.582;2023-06-26T04:44:41;8.60;;;4.00;;
48363;SDS011;34170;54.364;18.582;2023-06-26T04:47:09;6.82;;;3.65;;
48363;SDS011;34170;54.364;18.582;2023-06-26T04:49:37;5.00;;;3.40;;
48363;SDS011;34170;54.364;18.582;2023-06-26T04:52:05;6.45;;;3.85;;
48363;SDS011;34170;54.364;18.582;2023-06-26T04:54:33;6.38;;;3.45;;
48363;SDS011;34170;54.364;18.582;2023-06-26T04:57:00;5.88;;;3.30;;
48363;SDS011;34170;54.364;18.582;2023-06-26T04:59:28;7.70;;;3.17;;
48363;SDS011;34170;54.364;18.582;2023-06-26T05:01:56;6.50;;;3.45;;
48363;SDS011;34170;54.364;18.582;2023-06-26T05:04:24;5.40;;;3.47;;
48363;SDS011;34170;54.364;18.582;2023-06-26T05:06:52;4.55;;;2.97;;
48363;SDS011;34170;54.364;18.582;2023-06-26T05:09:20;5.25;;;2.80;;
48363;SDS011;34170;54.364;18.582;2023-06-26T05:11:48;6.15;;;3.28;;
48363;SDS011;34170;54.364;18.582;2023-06-26T05:14:16;5.03;;;3.25;;
48363;SDS011;34170;54.364;18.582;2023-06-26T05:16:43;4.75;;;2.88;;
48363;SDS011;34170;54.364;18.582;2023-06-26T05:19:12;5.45;;;3.08;;
48363;SDS011;34170;54.364;18.582;2023-06-26T05:21:39;4.68;;;2.95;;
48363;SDS011;34170;54.364;18.582;2023-06-26T05:24:08;6.07;;;3.20;;
48363;SDS011;34170;54.364;18.582;2023-06-26T05:26:36;6.25;;;2.97;;
48363;SDS011;34170;54.364;18.582;2023-06-26T05:29:04;3.55;;;2.58;;
48363;SDS011;34170;54.364;18.582;2023-06-26T05:31:32;6.05;;;2.45;;
48363;SDS011;34170;54.364;18.582;2023-06-26T05:34:03;3.08;;;2.20;;
48363;SDS011;34170;54.364;18.582;2023-06-26T05:36:31;3.85;;;2.08;;
48363;SDS011;34170;54.364;18.582;2023-06-26T05:39:02;5.72;;;2.50;;
48363;SDS011;34170;54.364;18.582;2023-06-26T05:41:30;5.85;;;2.40;;
48363;SDS011;34170;54.364;18.582;2023-06-26T05:43:58;3.60;;;2.53;;
48363;SDS011;34170;54.364;18.582;2023-06-26T05:46:26;4.25;;;2.67;;
48363;SDS011;34170;54.364;18.582;2023-06-26T05:48:53;3.13;;;2.30;;
48363;SDS011;34170;54.364;18.582;2023-06-26T05:51:21;4.90;;;2.70;;
48363;SDS011;34170;54.364;18.582;2023-06-26T05:53:49;7.18;;;2.30;;
48363;SDS011;34170;54.364;18.582;2023-06-26T05:56:17;10.75;;;2.65;;
48363;SDS011;34170;54.364;18.582;2023-06-26T05:58:46;17.67;;;3.13;;
48363;SDS011;34170;54.364;18.582;2023-06-26T06:01:14;7.88;;;2.65;;
48363;SDS011;34170;54.364;18.582;2023-06-26T06:03:42;3.53;;;2.10;;
48363;SDS011;34170;54.364;18.582;2023-06-26T06:06:10;26.77;;;4.18;;
48363;SDS011;34170;54.364;18.582;2023-06-26T06:08:38;12.80;;;2.72;;
48363;SDS011;34170;54.364;18.582;2023-06-26T06:11:06;2.20;;;1.67;;
48363;SDS011;34170;54.364;18.582;2023-06-26T06:13:34;4.15;;;2.22;;
48363;SDS011;34170;54.364;18.582;2023-06-26T06:16:01;5.88;;;3.13;;
48363;SDS011;34170;54.364;18.582;2023-06-26T06:18:29;4.78;;;2.35;;
48363;SDS011;34170;54.364;18.582;2023-06-26T06:20:57;11.95;;;2.75;;
48363;SDS011;34170;54.364;18.582;2023-06-26T06:23:25;13.07;;;3.60;;
48363;SDS011;34170;54.364;18.582;2023-06-26T06:25:52;15.57;;;3.08;;
48363;SDS011;34170;54.364;18.582;2023-06-26T06:28:20;4.53;;;2.22;;
48363;SDS011;34170;54.364;18.582;2023-06-26T06:30:48;3.15;;;2.22;;
48363;SDS011;34170;54.364;18.582;2023-06-26T06:33:16;7.35;;;2.35;;
48363;SDS011;34170;54.364;18.582;2023-06-26T06:35:44;4.50;;;2.13;;
48363;SDS011;34170;54.364;18.582;2023-06-26T06:38:12;4.85;;;2.40;;
48363;SDS011;34170;54.364;18.582;2023-06-26T06:40:39;4.50;;;2.10;;
48363;SDS011;34170;54.364;18.582;2023-06-26T06:43:08;3.10;;;1.90;;
48363;SDS011;34170;54.364;18.582;2023-06-26T06:45:35;2.80;;;2.10;;
48363;SDS011;34170;54.364;18.582;2023-06-26T06:48:05;3.17;;;2.35;;
48363;SDS011;34170;54.364;18.582;2023-06-26T06:50:33;8.38;;;2.22;;
48363;SDS011;34170;54.364;18.582;2023-06-26T06:53:01;3.42;;;2.25;;
48363;SDS011;34170;54.364;18.582;2023-06-26T06:55:28;3.22;;;1.90;;
48363;SDS011;34170;54.364;18.582;2023-06-26T06:57:56;3.58;;;2.10;;
48363;SDS011;34170;54.364;18.582;2023-06-26T07:00:24;4.88;;;1.77;;
48363;SDS011;34170;54.364;18.582;2023-06-26T07:02:52;3.80;;;2.05;;
48363;SDS011;34170;54.364;18.582;2023-06-26T07:05:20;4.70;;;2.40;;
48363;SDS011;34170;54.364;18.582;2023-06-26T07:07:48;4.13;;;2.03;;
48363;SDS011;34170;54.364;18.582;2023-06-26T07:10:16;2.97;;;2.13;;
48363;SDS011;34170;54.364;18.582;2023-06-26T07:12:44;2.58;;;2.28;;
48363;SDS011;34170;54.364;18.582;2023-06-26T07:15:12;3.05;;;2.17;;
48363;SDS011;34170;54.364;18.582;2023-06-26T07:17:40;4.65;;;2.10;;
48363;SDS011;34170;54.364;18.582;2023-06-26T07:20:07;17.13;;;3.00;;
48363;SDS011;34170;54.364;18.582;2023-06-26T07:22:37;5.97;;;2.50;;
48363;SDS011;34170;54.364;18.582;2023-06-26T07:25:05;3.85;;;2.45;;
48363;SDS011;34170;54.364;18.582;2023-06-26T07:27:37;5.43;;;2.28;;
48363;SDS011;34170;54.364;18.582;2023-06-26T07:30:05;4.80;;;2.22;;
48363;SDS011;34170;54.364;18.582;2023-06-26T07:32:36;3.28;;;2.28;;
48363;SDS011;34170;54.364;18.582;2023-06-26T07:35:05;3.95;;;2.13;;
48363;SDS011;34170;54.364;18.582;2023-06-26T07:37:33;3.22;;;2.00;;
48363;SDS011;34170;54.364;18.582;2023-06-26T07:40:00;7.32;;;2.45;;
48363;SDS011;34170;54.364;18.582;2023-06-26T07:42:29;6.03;;;2.58;;
48363;SDS011;34170;54.364;18.582;2023-06-26T07:44:57;5.03;;;2.30;;
48363;SDS011;34170;54.364;18.582;2023-06-26T07:47:25;3.75;;;2.30;;
48363;SDS011;34170;54.364;18.582;2023-06-26T07:49:53;2.65;;;1.90;;
48363;SDS011;34170;54.364;18.582;2023-06-26T07:52:21;2.63;;;1.98;;
48363;SDS011;34170;54.364;18.582;2023-06-26T07:54:48;7.72;;;2.85;;
48363;SDS011;34170;54.364;18.582;2023-06-26T07:57:16;5.25;;;2.20;;
48363;SDS011;34170;54.364;18.582;2023-06-26T07:59:43;7.05;;;2.38;;
48363;SDS011;34170;54.364;18.582;2023-06-26T08:02:11;6.80;;;2.30;;
48363;SDS011;34170;54.364;18.582;2023-06-26T08:04:39;5.22;;;2.40;;
48363;SDS011;34170;54.364;18.582;2023-06-26T08:07:06;2.65;;;2.38;;
48363;SDS011;34170;54.364;18.582;2023-06-26T08:09:34;7.97;;;2.65;;
48363;SDS011;34170;54.364;18.582;2023-06-26T08:12:02;4.00;;;2.35;;
48363;SDS011;34170;54.364;18.582;2023-06-26T08:14:29;5.22;;;2.60;;
48363;SDS011;34170;54.364;18.582;2023-06-26T08:16:58;14.60;;;3.90;;
48363;SDS011;34170;54.364;18.582;2023-06-26T08:19:26;8.05;;;2.70;;
48363;SDS011;34170;54.364;18.582;2023-06-26T08:21:54;3.13;;;2.67;;
48363;SDS011;34170;54.364;18.582;2023-06-26T08:24:22;3.53;;;2.33;;
48363;SDS011;34170;54.364;18.582;2023-06-26T08:26:49;6.70;;;2.55;;
48363;SDS011;34170;54.364;18.582;2023-06-26T08:29:17;4.93;;;2.80;;
48363;SDS011;34170;54.364;18.582;2023-06-26T08:31:45;3.47;;;2.60;;
48363;SDS011;34170;54.364;18.582;2023-06-26T08:34:12;27.98;;;5.15;;
48363;SDS011;34170;54.364;18.582;2023-06-26T08:36:40;8.25;;;2.83;;
48363;SDS011;34170;54.364;18.582;2023-06-26T08:39:07;5.47;;;2.20;;
48363;SDS011;34170;54.364;18.582;2023-06-26T08:41:36;5.15;;;2.80;;
48363;SDS011;34170;54.364;18.582;2023-06-26T08:44:03;4.60;;;2.42;;
48363;SDS011;34170;54.364;18.582;2023-06-26T08:46:32;3.38;;;2.03;;
48363;SDS011;34170;54.364;18.582;2023-06-26T08:49:01;3.22;;;2.28;;
48363;SDS011;34170;54.364;18.582;2023-06-26T08:51:42;4.53;;;2.40;;
48363;SDS011;34170;54.364;18.582;2023-06-26T08:54:17;4.40;;;2.50;;
48363;SDS011;34170;54.364;18.582;2023-06-26T08:56:49;5.05;;;2.67;;
48363;SDS011;34170;54.364;18.582;2023-06-26T08:59:17;4.25;;;2.65;;
48363;SDS011;34170;54.364;18.582;2023-06-26T09:01:45;4.75;;;2.83;;
48363;SDS011;34170;54.364;18.582;2023-06-26T09:04:13;5.40;;;2.97;;
48363;SDS011;34170;54.364;18.582;2023-06-26T09:06:43;4.18;;;2.58;;
48363;SDS011;34170;54.364;18.582;2023-06-26T09:09:12;5.57;;;3.10;;
48363;SDS011;34170;54.364;18.582;2023-06-26T09:11:40;4.25;;;2.75;;
48363;SDS011;34170;54.364;18.582;2023-06-26T09:14:07;4.78;;;2.47;;
48363;SDS011;34170;54.364;18.582;2023-06-26T09:19:11;4.75;;;2.40;;
48363;SDS011;34170;54.364;18.582;2023-06-26T09:21:40;5.63;;;2.47;;
48363;SDS011;34170;54.364;18.582;2023-06-26T09:24:08;5.43;;;2.30;;
48363;SDS011;34170;54.364;18.582;2023-06-26T09:26:37;6.28;;;2.25;;
48363;SDS011;34170;54.364;18.582;2023-06-26T09:29:06;3.78;;;2.20;;
48363;SDS011;34170;54.364;18.582;2023-06-26T09:31:36;7.13;;;2.83;;
48363;SDS011;34170;54.364;18.582;2023-06-26T09:34:08;4.03;;;2.65;;
48363;SDS011;34170;54.364;18.582;2023-06-26T09:36:38;5.18;;;2.20;;
48363;SDS011;34170;54.364;18.582;2023-06-26T09:39:07;9.73;;;2.50;;
48363;SDS011;34170;54.364;18.582;2023-06-26T09:41:43;10.88;;;2.85;;
48363;SDS011;34170;54.364;18.582;2023-06-26T09:44:13;4.97;;;2.53;;
48363;SDS011;34170;54.364;18.582;2023-06-26T09:46:44;4.30;;;2.42;;
48363;SDS011;34170;54.364;18.582;2023-06-26T09:49:13;4.72;;;2.60;;
48363;SDS011;34170;54.364;18.582;2023-06-26T09:51:42;3.53;;;2.40;;
48363;SDS011;34170;54.364;18.582;2023-06-26T09:54:10;3.30;;;2.22;;
48363;SDS011;34170;54.364;18.582;2023-06-26T09:56:38;5.90;;;2.28;;
48363;SDS011;34170;54.364;18.582;2023-06-26T09:59:06;5.78;;;2.63;;
48363;SDS011;34170;54.364;18.582;2023-06-26T10:01:40;4.45;;;2.38;;
48363;SDS011;34170;54.364;18.582;2023-06-26T10:04:09;6.35;;;2.67;;
48363;SDS011;34170;54.364;18.582;2023-06-26T10:06:39;10.93;;;2.97;;
48363;SDS011;34170;54.364;18.582;2023-06-26T10:09:10;7.80;;;2.55;;
48363;SDS011;34170;54.364;18.582;2023-06-26T10:11:41;17.40;;;4.85;;
48363;SDS011;34170;54.364;18.582;2023-06-26T10:14:16;6.68;;;3.33;;
48363;SDS011;34170;54.364;18.582;2023-06-26T10:16:45;19.20;;;4.55;;
48363;SDS011;34170;54.364;18.582;2023-06-26T10:19:15;7.97;;;3.22;;
48363;SDS011;34170;54.364;18.582;2023-06-26T10:21:48;22.90;;;4.28;;
48363;SDS011;34170;54.364;18.582;2023-06-26T10:24:16;20.85;;;3.95;;
48363;SDS011;34170;54.364;18.582;2023-06-26T10:26:45;6.50;;;2.67;;
48363;SDS011;34170;54.364;18.582;2023-06-26T10:29:17;22.08;;;3.47;;
48363;SDS011;34170;54.364;18.582;2023-06-26T10:31:50;11.05;;;3.45;;
48363;SDS011;34170;54.364;18.582;2023-06-26T10:34:19;8.50;;;3.03;;
48363;SDS011;34170;54.364;18.582;2023-06-26T10:36:48;8.13;;;2.92;;
48363;SDS011;34170;54.364;18.582;2023-06-26T10:39:27;6.65;;;3.10;;
48363;SDS011;34170;54.364;18.582;2023-06-26T10:41:55;11.75;;;3.15;;
48363;SDS011;34170;54.364;18.582;2023-06-26T10:44:39;6.88;;;3.03;;
48363;SDS011;34170;54.364;18.582;2023-06-26T10:47:12;9.15;;;3.53;;
48363;SDS011;34170;54.364;18.582;2023-06-26T10:49:56;8.88;;;3.08;;
48363;SDS011;34170;54.364;18.582;2023-06-26T10:55:37;13.18;;;3.65;;
48363;SDS011;34170;54.364;18.582;2023-06-26T10:58:52;7.72;;;3.13;;
48363;SDS011;34170;54.364;18.582;2023-06-26T11:03:40;16.73;;;4.05;;
48363;SDS011;34170;54.364;18.582;2023-06-26T11:06:12;16.67;;;4.30;;
48363;SDS011;34170;54.364;18.582;2023-06-26T11:08:46;8.07;;;3.05;;
48363;SDS011;34170;54.364;18.582;2023-06-26T11:11:15;7.05;;;3.28;;
48363;SDS011;34170;54.364;18.582;2023-06-26T11:13:44;14.02;;;3.20;;
48363;SDS011;34170;54.364;18.582;2023-06-26T11:16:13;11.50;;;3.30;;
48363;SDS011;34170;54.364;18.582;2023-06-26T11:18:42;15.75;;;3.72;;
48363;SDS011;34170;54.364;18.582;2023-06-26T11:21:10;13.68;;;3.17;;
48363;SDS011;34170;54.364;18.582;2023-06-26T11:23:41;8.30;;;3.00;;
48363;SDS011;34170;54.364;18.582;2023-06-26T11:26:16;11.10;;;3.00;;
48363;SDS011;34170;54.364;18.582;2023-06-26T11:28:46;10.30;;;3.47;;
48363;SDS011;34170;54.364;18.582;2023-06-26T11:31:36;6.75;;;2.92;;
48363;SDS011;34170;54.364;18.582;2023-06-26T11:34:08;9.88;;;2.78;;
48363;SDS011;34170;54.364;18.582;2023-06-26T11:36:39;9.35;;;3.22;;
48363;SDS011;34170;54.364;18.582;2023-06-26T11:39:10;9.52;;;2.80;;
48363;SDS011;34170;54.364;18.582;2023-06-26T11:41:38;7.95;;;2.97;;
48363;SDS011;34170;54.364;18.582;2023-06-26T11:44:08;9.18;;;3.45;;
48363;SDS011;34170;54.364;18.582;2023-06-26T11:46:37;7.40;;;3.28;;
48363;SDS011;34170;54.364;18.582;2023-06-26T11:49:06;7.30;;;2.75;;
48363;SDS011;34170;54.364;18.582;2023-06-26T11:51:34;9.88;;;3.45;;
48363;SDS011;34170;54.364;18.582;2023-06-26T11:54:03;8.70;;;3.17;;
48363;SDS011;34170;54.364;18.582;2023-06-26T11:56:32;10.85;;;3.35;;
48363;SDS011;34170;54.364;18.582;2023-06-26T12:01:34;13.23;;;3.53;;
48363;SDS011;34170;54.364;18.582;2023-06-26T12:04:06;8.07;;;3.05;;
48363;SDS011;34170;54.364;18.582;2023-06-26T12:06:36;6.13;;;2.53;;
48363;SDS011;34170;54.364;18.582;2023-06-26T12:09:06;11.23;;;3.38;;
48363;SDS011;34170;54.364;18.582;2023-06-26T12:11:37;8.35;;;3.17;;
48363;SDS011;34170;54.364;18.582;2023-06-26T12:14:07;9.65;;;2.80;;
48363;SDS011;34170;54.364;18.582;2023-06-26T12:16:36;8.18;;;3.30;;
48363;SDS011;34170;54.364;18.582;2023-06-26T12:19:05;5.97;;;2.92;;
48363;SDS011;34170;54.364;18.582;2023-06-26T12:24:04;8.20;;;3.15;;
48363;SDS011;34170;54.364;18.582;2023-06-26T12:26:34;11.50;;;3.42;;
48363;SDS011;34170;54.364;18.582;2023-06-26T12:29:04;9.85;;;2.88;;
48363;SDS011;34170;54.364;18.582;2023-06-26T12:31:33;16.75;;;3.33;;
48363;SDS011;34170;54.364;18.582;2023-06-26T12:34:08;16.67;;;2.85;;
48363;SDS011;34170;54.364;18.582;2023-06-26T12:36:41;8.23;;;3.55;;
48363;SDS011;34170;54.364;18.582;2023-06-26T12:39:09;5.57;;;3.20;;
48363;SDS011;34170;54.364;18.582;2023-06-26T12:44:31;6.63;;;2.93;;
48363;SDS011;34170;54.364;18.582;2023-06-26T12:47:00;9.73;;;3.00;;
48363;SDS011;34170;54.364;18.582;2023-06-26T12:49:29;9.75;;;3.20;;
48363;SDS011;34170;54.364;18.582;2023-06-26T12:52:07;7.20;;;2.80;;
48363;SDS011;34170;54.364;18.582;2023-06-26T12:54:41;9.40;;;2.55;;
48363;SDS011;34170;54.364;18.582;2023-06-26T12:57:10;7.78;;;2.95;;
48363;SDS011;34170;54.364;18.582;2023-06-26T12:59:38;6.47;;;2.65;;
48363;SDS011;34170;54.364;18.582;2023-06-26T13:02:06;12.95;;;3.50;;
48363;SDS011;34170;54.364;18.582;2023-06-26T13:04:33;11.57;;;3.40;;
48363;SDS011;34170;54.364;18.582;2023-06-26T13:07:02;10.98;;;3.17;;
48363;SDS011;34170;54.364;18.582;2023-06-26T13:09:31;18.65;;;3.40;;
48363;SDS011;34170;54.364;18.582;2023-06-26T13:12:01;10.85;;;2.60;;
48363;SDS011;34170;54.364;18.582;2023-06-26T13:14:31;7.40;;;2.97;;
48363;SDS011;34170;54.364;18.582;2023-06-26T13:17:00;8.63;;;3.13;;
48363;SDS011;34170;54.364;18.582;2023-06-26T13:19:28;6.35;;;2.38;;
48363;SDS011;34170;54.364;18.582;2023-06-26T13:21:56;5.00;;;2.70;;
48363;SDS011;34170;54.364;18.582;2023-06-26T13:24:23;18.10;;;6.10;;
48363;SDS011;34170;54.364;18.582;2023-06-26T13:26:52;9.38;;;3.25;;
48363;SDS011;34170;54.364;18.582;2023-06-26T13:29:19;14.77;;;4.07;;
48363;SDS011;34170;54.364;18.582;2023-06-26T13:31:47;27.30;;;4.10;;
48363;SDS011;34170;54.364;18.582;2023-06-26T13:34:24;11.43;;;3.20;;
48363;SDS011;34170;54.364;18.582;2023-06-26T13:36:55;6.05;;;2.85;;
48363;SDS011;34170;54.364;18.582;2023-06-26T13:39:23;10.82;;;4.22;;
48363;SDS011;34170;54.364;18.582;2023-06-26T13:41:51;13.00;;;3.20;;
48363;SDS011;34170;54.364;18.582;2023-06-26T13:44:18;5.32;;;2.80;;
48363;SDS011;34170;54.364;18.582;2023-06-26T13:47:05;8.32;;;2.75;;
48363;SDS011;34170;54.364;18.582;2023-06-26T13:49:35;6.90;;;3.10;;
48363;SDS011;34170;54.364;18.582;2023-06-26T13:52:03;6.07;;;3.20;;
48363;SDS011;34170;54.364;18.582;2023-06-26T13:54:31;5.25;;;2.80;;
48363;SDS011;34170;54.364;18.582;2023-06-26T13:56:59;5.82;;;3.05;;
48363;SDS011;34170;54.364;18.582;2023-06-26T13:59:29;6.20;;;2.95;;
48363;SDS011;34170;54.364;18.582;2023-06-26T14:01:57;5.00;;;2.85;;
48363;SDS011;34170;54.364;18.582;2023-06-26T14:04:25;9.55;;;3.38;;
48363;SDS011;34170;54.364;18.582;2023-06-26T14:06:53;9.63;;;3.10;;
48363;SDS011;34170;54.364;18.582;2023-06-26T14:09:20;10.82;;;2.80;;
48363;SDS011;34170;54.364;18.582;2023-06-26T14:11:49;8.55;;;3.10;;
48363;SDS011;34170;54.364;18.582;2023-06-26T14:14:16;9.18;;;2.85;;
48363;SDS011;34170;54.364;18.582;2023-06-26T14:16:44;9.35;;;3.33;;
48363;SDS011;34170;54.364;18.582;2023-06-26T14:19:12;6.47;;;3.05;;
48363;SDS011;34170;54.364;18.582;2023-06-26T14:21:41;6.50;;;2.70;;
48363;SDS011;34170;54.364;18.582;2023-06-26T14:24:09;9.65;;;2.80;;
48363;SDS011;34170;54.364;18.582;2023-06-26T14:26:37;15.43;;;3.15;;
48363;SDS011;34170;54.364;18.582;2023-06-26T14:29:05;14.77;;;3.50;;
48363;SDS011;34170;54.364;18.582;2023-06-26T14:31:33;10.90;;;3.22;;
48363;SDS011;34170;54.364;18.582;2023-06-26T14:34:01;8.50;;;3.03;;
48363;SDS011;34170;54.364;18.582;2023-06-26T14:36:30;10.13;;;2.78;;
48363;SDS011;34170;54.364;18.582;2023-06-26T14:39:00;8.82;;;2.70;;
48363;SDS011;34170;54.364;18.582;2023-06-26T14:41:29;6.85;;;2.80;;
48363;SDS011;34170;54.364;18.582;2023-06-26T14:43:57;8.07;;;3.03;;
48363;SDS011;34170;54.364;18.582;2023-06-26T14:46:26;6.68;;;3.17;;
48363;SDS011;34170;54.364;18.582;2023-06-26T14:48:54;7.20;;;2.42;;
48363;SDS011;34170;54.364;18.582;2023-06-26T14:51:23;9.02;;;2.88;;
48363;SDS011;34170;54.364;18.582;2023-06-26T14:53:50;8.55;;;3.03;;
48363;SDS011;34170;54.364;18.582;2023-06-26T14:56:18;8.25;;;3.10;;
48363;SDS011;34170;54.364;18.582;2023-06-26T14:58:45;6.80;;;2.65;;
48363;SDS011;34170;54.364;18.582;2023-06-26T15:01:16;11.60;;;2.83;;
48363;SDS011;34170;54.364;18.582;2023-06-26T15:03:44;10.30;;;3.42;;
48363;SDS011;34170;54.364;18.582;2023-06-26T15:06:12;8.07;;;3.05;;